LiveATC.Net - Listen to live air traffic control over the Internet!


ICAO: SBBE  IATA: BEL   Airport: Val de Cans International Airport
City: Belem
Country: Brazil   Continent: South America
SBBE METAR Weather: SBBE 240600Z 07003KT 9999 BKN007 BKN009 BKN090 23/23 Q1010
SBBE Flight Activity (FlightAware)

SBBE Twr/App/SBAZ
Feed Status: DOWN
Last heard on: 2022-01-24 04:14:22 (0 days 2 hours 20 minutes ago)
Archive Access: SBBE Twr/App/SBAZ
FacilityFrequency
Amazonica FIR (SBAZ)123.950
Amazonica FIR (SBAZ)126.150
Amazonica FIR (SBAZ)126.500
Amazonica FIR (SBAZ)126.650
Amazonica FIR (SBAZ)128.000
Amazonica FIR (SBAZ)133.700
Belem Approach119.050
Belem Approach119.500
Belem Tower118.700

NOTICE

Unauthorized use prohibited. See LiveATC.net Terms of Service


Airport/ARTCC Code
Frequency Search
(e.g., 124.400, 128.75)
Site-wide search
 


Browse Feeds
Top 50 Feeds
HF Oceanic Feeds
Coverage Map
Bad Weather Areas

LiveATC FAQ
Offer LiveATC feed
Contact LiveATC.net
Press Inquiries

LiveATC on iPhone
LiveATC on Android

LiveATC Mobile
(Mobile browser)

ATC Audio Archives
Interesting Recordings

LiveATC Forums


Home Page
About LiveATC.net
Make a Donation
Terms of Use
Privacy Policy

Canadian Air Freqs

AIRMETs/SIGMETs

FAA Airport Status
NAS Status
Arrival Demand


Server Software By:
Icecast.org
Liquidsoap